Time;durP1;ratioP1;P1;durP2;ratioP2;P2;SDS_P1;SDS_P2;PMS_P1;PMS_P2;Temp;Humidity;BMP_temperature;BMP_pressure;BME280_temperature;BME280_humidity;BME280_pressure;Samples;Min_cycle;Max_cycle;Signal;HPM_P1;HPM_P2
2023/10/13 00:01:24;;;;;;;14.20;8.10;;;18.80;84.00;;;;;;5122288;27;20479;-79
2023/10/13 00:03:54;;;;;;;12.97;6.97;;;18.90;84.00;;;;;;5121537;27;20467;-82
2023/10/13 00:06:22;;;;;;;13.57;8.43;;;18.90;84.00;;;;;;5125336;27;20949;-78
2023/10/13 00:08:50;;;;;;;16.50;7.63;;;18.90;84.00;;;;;;5126760;27;20455;-79
2023/10/13 00:11:21;;;;;;;14.90;7.37;;;18.90;84.10;;;;;;5122296;27;20538;-79
2023/10/13 00:13:51;;;;;;;20.63;8.40;;;18.90;84.10;;;;;;5125281;27;20546;-77
2023/10/13 00:16:27;;;;;;;17.97;7.80;;;18.90;84.10;;;;;;5125934;27;21296;-77
2023/10/13 00:18:57;;;;;;;13.03;8.03;;;18.90;84.10;;;;;;5125839;27;20957;-76
2023/10/13 00:21:32;;;;;;;22.73;9.60;;;19.00;84.10;;;;;;5123916;27;20454;-78
2023/10/13 00:24:01;;;;;;;17.00;8.27;;;19.00;84.10;;;;;;5117878;27;20442;-78
2023/10/13 00:26:30;;;;;;;15.30;7.80;;;19.00;84.00;;;;;;5116734;27;20463;-77
2023/10/13 00:29:08;;;;;;;23.30;7.70;;;19.00;84.00;;;;;;5119837;27;20508;-78
2023/10/13 00:31:40;;;;;;;19.97;7.40;;;19.00;83.90;;;;;;5121143;27;20486;-79
2023/10/13 00:34:11;;;;;;;16.87;7.53;;;19.00;83.90;;;;;;5123107;27;20464;-77
2023/10/13 00:36:48;;;;;;;14.50;8.07;;;19.00;83.90;;;;;;5127838;27;20518;-79
2023/10/13 00:39:16;;;;;;;17.53;7.93;;;19.00;83.90;;;;;;5121912;27;20454;-78
2023/10/13 00:41:52;;;;;;;16.10;8.60;;;19.00;83.90;;;;;;5125722;27;20459;-79
2023/10/13 00:44:28;;;;;;;23.90;8.03;;;19.00;83.80;;;;;;5123228;27;20466;-78
2023/10/13 00:46:56;;;;;;;16.90;6.87;;;19.00;83.80;;;;;;5121970;27;20791;-79
2023/10/13 00:49:25;;;;;;;18.90;8.13;;;19.00;83.80;;;;;;5124716;27;20478;-79
2023/10/13 00:51:52;;;;;;;19.30;7.80;;;19.00;83.80;;;;;;5117181;27;20501;-77
2023/10/13 00:54:26;;;;;;;14.80;7.77;;;19.00;83.70;;;;;;5121114;27;20483;-78
2023/10/13 00:57:04;;;;;;;24.20;7.60;;;19.00;83.60;;;;;;5127811;27;20553;-80
2023/10/13 00:59:43;;;;;;;12.80;6.87;;;19.00;83.70;;;;;;5118022;27;20506;-79
2023/10/13 01:04:54;;;;;;;20.70;8.20;;;19.00;83.70;;;;;;5127846;27;20467;-81
2023/10/13 01:07:22;;;;;;;17.00;8.43;;;19.00;83.70;;;;;;5118683;27;20509;-78
2023/10/13 01:09:53;;;;;;;22.93;8.40;;;19.00;83.60;;;;;;5123571;27;20469;-77
2023/10/13 01:12:23;;;;;;;17.60;7.87;;;19.00;83.60;;;;;;5118558;27;20463;-80
2023/10/13 01:14:52;;;;;;;25.17;9.47;;;19.00;83.60;;;;;;5123552;27;20545;-79
2023/10/13 01:17:23;;;;;;;18.53;8.80;;;19.00;83.60;;;;;;5120290;27;20469;-80
2023/10/13 01:19:58;;;;;;;15.73;8.13;;;19.00;83.60;;;;;;5115924;27;20510;-82
2023/10/13 01:22:27;;;;;;;16.43;7.60;;;19.00;83.50;;;;;;5120202;27;20462;-78
2023/10/13 01:25:05;;;;;;;19.27;8.57;;;19.00;83.50;;;;;;5121836;27;20439;-81
2023/10/13 01:27:38;;;;;;;14.30;7.80;;;19.00;83.40;;;;;;5121339;27;20570;-80
2023/10/13 01:30:10;;;;;;;22.07;8.90;;;19.00;83.30;;;;;;5124180;27;20483;-79
2023/10/13 01:32:40;;;;;;;20.73;9.20;;;18.90;83.40;;;;;;5121796;27;20474;-77
2023/10/13 01:35:07;;;;;;;23.67;10.97;;;18.90;83.40;;;;;;5123245;27;20474;-79
2023/10/13 01:37:35;;;;;;;23.20;9.27;;;18.90;83.40;;;;;;5123712;27;20794;-76
2023/10/13 01:40:05;;;;;;;15.83;8.57;;;18.80;83.50;;;;;;5119336;27;21029;-78
2023/10/13 01:42:36;;;;;;;14.57;8.27;;;18.80;83.50;;;;;;5124482;27;20562;-78
2023/10/13 01:45:05;;;;;;;17.13;7.93;;;18.80;83.50;;;;;;5121421;27;20614;-79
2023/10/13 01:47:34;;;;;;;20.23;10.43;;;18.80;83.50;;;;;;5125460;27;20458;-81
2023/10/13 01:50:12;;;;;;;26.97;11.00;;;18.80;83.60;;;;;;5125234;27;20466;-77
2023/10/13 01:52:41;;;;;;;39.13;16.67;;;18.70;83.70;;;;;;5117932;27;20882;-78
2023/10/13 01:55:11;;;;;;;21.23;10.93;;;18.70;83.70;;;;;;5131473;27;20479;-78
2023/10/13 01:57:42;;;;;;;30.60;14.70;;;18.70;83.70;;;;;;5118897;28;20459;-81
2023/10/13 02:00:18;;;;;;;16.77;9.50;;;18.60;83.70;;;;;;5122338;27;20451;-77
2023/10/13 02:02:49;;;;;;;23.37;9.90;;;18.60;83.70;;;;;;5118945;27;20446;-78
2023/10/13 02:05:17;;;;;;;21.27;9.63;;;18.50;83.70;;;;;;5120985;27;20455;-80
2023/10/13 02:07:46;;;;;;;18.50;7.93;;;18.50;83.80;;;;;;5119705;27;20448;-79
2023/10/13 02:10:14;;;;;;;67.10;28.80;;;18.50;83.90;;;;;;5125505;27;20504;-82
2023/10/13 02:12:45;;;;;;;43.77;20.03;;;18.40;84.00;;;;;;5123676;27;20808;-75
2023/10/13 02:15:20;;;;;;;30.53;14.20;;;18.40;84.00;;;;;;5126188;27;20507;-81
2023/10/13 02:17:51;;;;;;;27.13;14.23;;;18.40;84.00;;;;;;5124571;27;20450;-78
2023/10/13 02:20:22;;;;;;;32.13;14.07;;;18.40;84.10;;;;;;5123124;27;20922;-79
2023/10/13 02:22:51;;;;;;;24.67;9.40;;;18.40;84.00;;;;;;5126049;27;20455;-80
2023/10/13 02:28:39;;;;;;;19.30;10.10;;;18.30;84.10;;;;;;5194068;27;20522;-78
2023/10/13 02:31:06;;;;;;;30.00;13.43;;;18.30;84.20;;;;;;5163300;27;20573;-77
2023/10/13 02:33:35;;;;;;;29.23;13.13;;;18.30;84.30;;;;;;5143757;27;21158;-79
2023/10/13 02:36:05;;;;;;;23.03;10.10;;;18.30;84.30;;;;;;5154643;27;20549;-78
2023/10/13 02:38:45;;;;;;;19.20;9.90;;;18.30;84.30;;;;;;5161228;27;20943;-78
2023/10/13 02:41:19;;;;;;;18.83;9.63;;;18.30;84.30;;;;;;5159095;27;20450;-80
2023/10/13 02:43:48;;;;;;;24.87;10.50;;;18.30;84.30;;;;;;5162089;27;20465;-79
2023/10/13 02:46:16;;;;;;;20.30;10.80;;;18.30;84.50;;;;;;5162799;27;20505;-79
2023/10/13 02:48:52;;;;;;;28.00;12.00;;;18.30;84.50;;;;;;5169907;27;20485;-78
2023/10/13 02:51:30;;;;;;;20.63;10.83;;;18.30;84.30;;;;;;5146206;27;20449;-80
2023/10/13 02:54:02;;;;;;;21.43;10.40;;;18.30;84.50;;;;;;5165499;27;20855;-80
2023/10/13 02:56:30;;;;;;;23.77;9.97;;;18.30;84.30;;;;;;5164913;27;20529;-77
2023/10/13 02:59:04;;;;;;;21.87;10.90;;;18.30;84.30;;;;;;5163038;27;20465;-79
2023/10/13 03:01:33;;;;;;;17.77;10.00;;;18.30;84.30;;;;;;5149910;27;20471;-77
2023/10/13 03:04:08;;;;;;;19.87;9.30;;;18.30;84.30;;;;;;5127824;27;20458;-79
2023/10/13 03:06:35;;;;;;;21.90;9.70;;;18.30;84.30;;;;;;5123896;27;20481;-79
2023/10/13 03:09:14;;;;;;;18.30;8.87;;;18.30;84.30;;;;;;5140243;27;20461;-79
2023/10/13 03:11:42;;;;;;;15.87;9.40;;;18.30;84.30;;;;;;5126394;27;20490;-77
2023/10/13 03:14:23;;;;;;;16.93;8.70;;;18.30;84.30;;;;;;5120594;27;20520;-78
2023/10/13 03:16:53;;;;;;;28.70;8.83;;;18.30;84.30;;;;;;5121887;27;20549;-79
2023/10/13 03:19:20;;;;;;;22.37;9.23;;;18.40;84.30;;;;;;5119186;27;20875;-78
2023/10/13 03:21:54;;;;;;;20.37;8.83;;;18.40;84.20;;;;;;5134716;27;20463;-78
2023/10/13 03:24:33;;;;;;;15.90;9.13;;;18.40;84.20;;;;;;5138638;27;20469;-76
2023/10/13 03:27:08;;;;;;;20.40;9.77;;;18.40;84.20;;;;;;5121861;27;20483;-77
2023/10/13 03:29:42;;;;;;;32.07;9.33;;;18.40;84.10;;;;;;5142886;27;20474;-78
2023/10/13 03:32:15;;;;;;;16.80;8.57;;;18.40;84.10;;;;;;5140562;27;20497;-79
2023/10/13 03:35:06;;;;;;;14.03;8.10;;;18.40;84.10;;;;;;5137458;27;20473;-77
2023/10/13 03:37:38;;;;;;;13.57;8.60;;;18.40;84.10;;;;;;5140077;27;21012;-77
2023/10/13 03:40:33;;;;;;;19.20;9.30;;;18.40;84.10;;;;;;5124520;27;20471;-79
2023/10/13 03:43:04;;;;;;;23.33;9.60;;;18.50;84.00;;;;;;5123971;27;20558;-78
2023/10/13 03:45:38;;;;;;;18.33;8.50;;;18.40;84.00;;;;;;5125930;27;20466;-78
2023/10/13 03:48:11;;;;;;;19.13;8.97;;;18.50;84.00;;;;;;5127949;27;20968;-80
2023/10/13 03:50:46;;;;;;;19.67;9.87;;;18.50;83.90;;;;;;5125826;27;20477;-80
2023/10/13 03:53:15;;;;;;;18.17;9.90;;;18.50;83.90;;;;;;5105709;27;20489;-78
2023/10/13 03:55:47;;;;;;;27.53;10.50;;;18.50;83.90;;;;;;5123237;27;20490;-79
2023/10/13 03:58:17;;;;;;;14.97;10.30;;;18.50;83.80;;;;;;5125767;27;20460;-79
2023/10/13 04:00:47;;;;;;;18.60;10.63;;;18.50;83.80;;;;;;5108697;27;20806;-80
2023/10/13 04:03:17;;;;;;;16.00;9.10;;;18.50;83.70;;;;;;5126189;27;20467;-78
2023/10/13 04:06:00;;;;;;;20.13;10.00;;;18.50;83.60;;;;;;5139067;27;20840;-79
2023/10/13 04:08:47;;;;;;;17.27;9.30;;;18.40;83.60;;;;;;5124065;27;20491;-81
2023/10/13 04:16:55;;;;;;;20.80;11.60;;;18.40;83.50;;;;;;5119404;27;20455;-77
2023/10/13 04:19:26;;;;;;;23.53;10.70;;;18.40;83.40;;;;;;5126020;27;20553;-77
2023/10/13 04:22:13;;;;;;;24.40;10.63;;;18.40;83.30;;;;;;5125388;27;20570;-79
2023/10/13 04:27:44;;;;;;;32.03;11.80;;;18.40;83.30;;;;;;5128033;27;20483;-76
2023/10/13 04:30:19;;;;;;;19.90;10.77;;;18.30;83.20;;;;;;5140006;27;20474;-79
2023/10/13 04:33:06;;;;;;;16.93;10.53;;;18.30;83.20;;;;;;5123957;27;20467;-79
2023/10/13 04:35:36;;;;;;;19.00;9.90;;;18.30;83.20;;;;;;5124905;27;20520;-79
2023/10/13 04:38:18;;;;;;;19.63;9.40;;;18.30;83.10;;;;;;5101358;27;20451;-78
2023/10/13 04:40:59;;;;;;;16.77;10.17;;;18.30;83.10;;;;;;5125911;27;20978;-79
2023/10/13 04:43:55;;;;;;;16.50;9.87;;;18.30;83.00;;;;;;5123786;27;20467;-79
2023/10/13 04:46:35;;;;;;;16.70;9.73;;;18.30;83.00;;;;;;5136065;27;20458;-78
2023/10/13 04:49:26;;;;;;;15.27;9.40;;;18.30;82.90;;;;;;5122401;27;20496;-79
2023/10/13 04:51:58;;;;;;;16.30;9.93;;;18.30;82.90;;;;;;5123555;27;21102;-77
2023/10/13 04:54:33;;;;;;;18.50;10.33;;;18.30;82.90;;;;;;5106910;27;20964;-78
2023/10/13 05:05:45;;;;;;;16.83;9.43;;;18.30;82.50;;;;;;5116605;27;20538;-78
2023/10/13 05:47:36;;;;;;;18.80;10.00;;;18.30;82.20;;;;;;5143945;27;20478;-78
2023/10/13 05:50:12;;;;;;;19.90;10.27;;;18.30;82.10;;;;;;5148032;27;20473;-79
2023/10/13 06:29:00;;;;;;;22.57;9.20;;;18.60;81.20;;;;;;5126373;28;20554;-77
2023/10/13 06:31:34;;;;;;;18.30;7.87;;;18.60;81.00;;;;;;5125117;27;21217;-79
2023/10/13 06:34:03;;;;;;;14.40;7.37;;;18.60;80.90;;;;;;5124189;28;20455;-77
2023/10/13 06:36:33;;;;;;;14.97;7.70;;;18.60;80.70;;;;;;5123414;28;20973;-80
2023/10/13 06:41:43;;;;;;;19.50;8.40;;;18.60;80.40;;;;;;5125504;28;20463;-78
2023/10/13 06:44:16;;;;;;;16.17;7.87;;;18.70;80.30;;;;;;5119412;28;20455;-79
2023/10/13 06:46:44;;;;;;;19.90;7.47;;;18.70;80.10;;;;;;5120035;28;20892;-78
2023/10/13 06:49:13;;;;;;;16.70;8.40;;;18.70;79.90;;;;;;5122584;28;20646;-79
2023/10/13 06:51:42;;;;;;;16.30;8.30;;;18.70;79.80;;;;;;5110937;28;20440;-79
2023/10/13 06:54:19;;;;;;;16.57;7.60;;;18.70;79.70;;;;;;5121645;28;20453;-79
2023/10/13 06:56:51;;;;;;;16.50;8.20;;;18.70;79.40;;;;;;5119721;28;21022;-78
2023/10/13 06:59:26;;;;;;;16.07;8.73;;;18.70;79.30;;;;;;5126446;28;20454;-79
2023/10/13 07:01:54;;;;;;;13.50;7.00;;;18.60;79.20;;;;;;5121299;28;20477;-78
2023/10/13 07:04:23;;;;;;;20.80;8.60;;;18.60;79.10;;;;;;5126467;28;20536;-79
2023/10/13 07:06:54;;;;;;;13.20;7.87;;;18.60;79.10;;;;;;5125521;28;20451;-77
2023/10/13 07:17:23;;;;;;;12.97;6.80;;;18.70;78.60;;;;;;5185598;27;20435;-78
2023/10/13 07:19:56;;;;;;;18.50;8.17;;;18.70;78.70;;;;;;5167989;27;20461;-79
2023/10/13 07:22:27;;;;;;;16.50;8.50;;;18.80;78.70;;;;;;5180302;27;20452;-79
2023/10/13 07:24:58;;;;;;;18.60;8.70;;;18.80;78.60;;;;;;5182112;27;20509;-78
2023/10/13 07:27:26;;;;;;;15.63;7.67;;;18.90;78.40;;;;;;5179936;27;20477;-80
2023/10/13 07:30:13;;;;;;;21.37;8.20;;;18.90;78.20;;;;;;5182261;27;20462;-80
2023/10/13 07:32:45;;;;;;;16.90;7.80;;;18.90;78.00;;;;;;5118933;27;20771;-79
2023/10/13 07:35:20;;;;;;;13.10;7.67;;;18.90;77.90;;;;;;5147024;27;20839;-79
2023/10/13 07:37:52;;;;;;;16.50;6.73;;;18.90;77.80;;;;;;5145465;27;20541;-78
2023/10/13 07:40:39;;;;;;;12.77;7.20;;;19.00;77.70;;;;;;5147749;27;20454;-78
2023/10/13 07:43:11;;;;;;;13.67;7.30;;;19.00;77.60;;;;;;5150454;27;20976;-79
2023/10/13 07:45:40;;;;;;;14.30;6.93;;;19.00;77.60;;;;;;5148632;27;21125;-79
2023/10/13 07:48:20;;;;;;;15.00;7.17;;;19.00;77.60;;;;;;5146811;27;20457;-79
2023/10/13 07:51:01;;;;;;;13.23;7.20;;;19.00;77.50;;;;;;5147611;27;20563;-79
2023/10/13 07:53:34;;;;;;;13.67;7.53;;;19.00;77.50;;;;;;5131438;27;20533;-79
2023/10/13 07:56:04;;;;;;;14.77;6.50;;;19.10;77.40;;;;;;5127716;27;20449;-79
2023/10/13 07:58:33;;;;;;;15.33;6.93;;;19.10;77.40;;;;;;5147193;27;20466;-80
2023/10/13 08:01:07;;;;;;;12.33;7.60;;;19.20;77.20;;;;;;5148568;27;20470;-78
2023/10/13 08:03:44;;;;;;;13.97;6.77;;;19.20;77.20;;;;;;5147691;27;20487;-80
2023/10/13 08:06:28;;;;;;;13.67;6.93;;;19.20;77.20;;;;;;5148864;27;21027;-78
2023/10/13 08:09:06;;;;;;;14.23;7.07;;;19.20;77.20;;;;;;5147261;27;20442;-79
2023/10/13 08:11:37;;;;;;;14.20;7.67;;;19.20;77.20;;;;;;5146546;27;20482;-79
2023/10/13 08:14:22;;;;;;;14.90;6.73;;;19.30;77.10;;;;;;5144612;27;20525;-79
2023/10/13 08:17:07;;;;;;;12.27;6.93;;;19.40;77.00;;;;;;5145336;27;20454;-78
2023/10/13 08:19:41;;;;;;;11.80;6.67;;;19.40;77.00;;;;;;5146553;27;20801;-79
2023/10/13 08:22:24;;;;;;;14.00;6.53;;;19.50;76.90;;;;;;5142460;27;20814;-78
2023/10/13 08:25:14;;;;;;;12.77;5.80;;;19.50;76.80;;;;;;5132188;27;21004;-80
2023/10/13 08:27:49;;;;;;;13.67;6.70;;;19.60;76.60;;;;;;5133827;27;20563;-78
2023/10/13 08:33:16;;;;;;;15.50;7.00;;;19.70;76.40;;;;;;5107824;27;21308;-79
2023/10/13 08:38:50;;;;;;;18.47;6.80;;;19.70;76.00;;;;;;5077384;27;20459;-78
2023/10/13 08:41:31;;;;;;;17.53;7.20;;;19.80;75.90;;;;;;5132804;27;20442;-79
2023/10/13 08:44:04;;;;;;;12.90;6.83;;;19.80;75.80;;;;;;5130560;27;20443;-79
2023/10/13 08:46:52;;;;;;;13.83;6.00;;;19.80;75.60;;;;;;5139554;27;20471;-78
2023/10/13 08:49:29;;;;;;;23.47;7.00;;;19.90;75.60;;;;;;5132717;27;20443;-79
2023/10/13 08:52:37;;;;;;;14.80;7.30;;;19.90;75.50;;;;;;5132648;27;20474;-78
2023/10/13 08:55:13;;;;;;;15.40;7.07;;;19.90;75.50;;;;;;5108045;27;20454;-78
2023/10/13 08:57:48;;;;;;;14.37;7.07;;;20.00;75.40;;;;;;5120716;27;20546;-78
2023/10/13 09:00:55;;;;;;;12.53;6.33;;;20.00;75.40;;;;;;5113240;27;20450;-80
2023/10/13 09:03:28;;;;;;;14.10;6.80;;;20.10;75.30;;;;;;5135364;27;20451;-79
2023/10/13 09:06:03;;;;;;;11.57;6.60;;;20.10;75.20;;;;;;5118450;27;20827;-78
2023/10/13 09:08:35;;;;;;;15.83;6.50;;;20.10;75.00;;;;;;5118662;27;20585;-81
2023/10/13 09:11:11;;;;;;;18.43;7.47;;;20.20;75.00;;;;;;5108430;27;20477;-79
2023/10/13 09:13:43;;;;;;;15.93;6.67;;;20.20;74.90;;;;;;5106198;27;20503;-79
2023/10/13 09:16:51;;;;;;;12.10;5.90;;;20.20;74.90;;;;;;5131199;27;20443;-79
2023/10/13 09:19:11;;;;;;;11.53;5.80;;;20.20;74.80;;;;;;5113406;27;20460;-79
2023/10/13 09:21:54;;;;;;;12.10;6.63;;;20.30;74.80;;;;;;5132939;27;20447;-79
2023/10/13 09:24:29;;;;;;;15.83;6.47;;;20.30;74.80;;;;;;5131235;27;21021;-79
2023/10/13 09:27:01;;;;;;;18.13;6.57;;;20.40;74.50;;;;;;5129843;27;20453;-79
2023/10/13 09:29:29;;;;;;;14.83;6.27;;;20.40;74.50;;;;;;5111095;27;20520;-79
2023/10/13 09:32:03;;;;;;;13.90;6.20;;;20.50;74.20;;;;;;5131581;27;21354;-78
2023/10/13 09:34:33;;;;;;;11.57;5.60;;;20.50;74.00;;;;;;5133671;27;20533;-79
2023/10/13 09:37:04;;;;;;;12.83;6.50;;;20.50;74.00;;;;;;5121016;27;20814;-78
2023/10/13 09:39:44;;;;;;;13.00;6.23;;;20.60;74.00;;;;;;5132929;27;21067;-78
2023/10/13 09:42:23;;;;;;;15.87;7.10;;;20.60;74.00;;;;;;5131834;27;21145;-80
2023/10/13 09:44:55;;;;;;;13.73;6.33;;;20.70;74.00;;;;;;5120438;27;20496;-79
2023/10/13 09:47:32;;;;;;;12.73;6.07;;;20.80;74.10;;;;;;5130445;27;20449;-79
2023/10/13 09:50:05;;;;;;;16.00;6.03;;;20.80;74.00;;;;;;5128900;27;20442;-79
2023/10/13 09:52:37;;;;;;;10.67;5.40;;;20.90;73.90;;;;;;5113494;27;20489;-78
2023/10/13 09:55:25;;;;;;;14.97;6.27;;;20.90;73.80;;;;;;5121070;27;20472;-79
2023/10/13 09:58:09;;;;;;;16.30;7.00;;;21.00;73.80;;;;;;5132740;27;20474;-80
2023/10/13 10:00:47;;;;;;;14.60;6.53;;;21.10;73.50;;;;;;5130095;27;20888;-81
2023/10/13 10:03:29;;;;;;;13.90;6.43;;;21.10;73.30;;;;;;5132053;27;20469;-79
2023/10/13 10:06:05;;;;;;;12.07;6.30;;;21.20;73.30;;;;;;5128813;27;20610;-79
2023/10/13 10:08:37;;;;;;;15.00;5.53;;;21.30;73.10;;;;;;5131443;27;20462;-80
2023/10/13 10:11:18;;;;;;;13.00;5.43;;;21.40;72.90;;;;;;5113906;27;20964;-78
2023/10/13 10:13:57;;;;;;;14.00;6.30;;;21.50;72.80;;;;;;5132132;27;20451;-80
2023/10/13 10:16:41;;;;;;;14.70;6.23;;;21.60;72.50;;;;;;5127863;27;20838;-81
2023/10/13 10:19:10;;;;;;;10.63;5.43;;;21.60;72.20;;;;;;5133901;27;20450;-79
2023/10/13 10:21:40;;;;;;;18.57;5.60;;;21.70;71.90;;;;;;5125910;27;20455;-78
2023/10/13 10:24:29;;;;;;;13.77;6.33;;;21.80;71.60;;;;;;5131688;27;20522;-79
2023/10/13 10:26:59;;;;;;;10.97;5.70;;;21.90;71.20;;;;;;5130645;27;20515;-79
2023/10/13 10:29:31;;;;;;;12.50;5.60;;;21.90;71.20;;;;;;5113091;27;20462;-80
2023/10/13 10:32:00;;;;;;;18.60;5.97;;;21.90;70.90;;;;;;5127784;27;20478;-79
2023/10/13 10:34:33;;;;;;;10.83;6.13;;;21.90;70.70;;;;;;5132302;27;20978;-79
2023/10/13 10:37:03;;;;;;;14.23;5.63;;;21.90;70.30;;;;;;5127184;27;20996;-80
2023/10/13 10:39:44;;;;;;;9.00;5.37;;;21.90;70.30;;;;;;5127799;27;20447;-79
2023/10/13 10:42:23;;;;;;;18.40;5.80;;;21.90;69.90;;;;;;5111238;27;20459;-79
2023/10/13 10:44:56;;;;;;;14.87;6.10;;;21.90;70.00;;;;;;5112379;27;20869;-80
2023/10/13 10:47:32;;;;;;;10.37;5.77;;;21.90;69.80;;;;;;5128420;27;20458;-79
2023/10/13 10:50:07;;;;;;;10.70;5.90;;;21.90;69.80;;;;;;5131250;27;20458;-79
2023/10/13 10:52:37;;;;;;;10.90;5.20;;;22.00;69.60;;;;;;5114138;27;20466;-79
2023/10/13 10:55:10;;;;;;;15.87;6.30;;;22.00;69.60;;;;;;5130218;27;20466;-78
2023/10/13 10:57:43;;;;;;;15.40;5.67;;;22.00;69.50;;;;;;5130898;27;20837;-79
2023/10/13 11:00:20;;;;;;;13.20;5.87;;;22.10;69.50;;;;;;5112423;28;20526;-80
2023/10/13 11:02:55;;;;;;;17.00;5.93;;;22.20;69.00;;;;;;5128471;27;20450;-79
2023/10/13 11:05:28;;;;;;;11.30;5.30;;;22.20;69.00;;;;;;5110698;27;20906;-79
2023/10/13 11:07:57;;;;;;;11.07;5.60;;;22.30;68.90;;;;;;5112055;27;20558;-77
2023/10/13 11:10:27;;;;;;;14.67;6.33;;;22.40;68.60;;;;;;5097901;28;20554;-79
2023/10/13 11:13:14;;;;;;;16.67;5.73;;;22.40;68.30;;;;;;5128400;27;20466;-81
2023/10/13 11:15:44;;;;;;;11.90;5.97;;;22.50;68.10;;;;;;5130516;27;20541;-79
2023/10/13 11:18:20;;;;;;;14.03;5.83;;;22.50;67.80;;;;;;5128801;27;20695;-79
2023/10/13 11:20:54;;;;;;;19.50;5.63;;;22.60;67.60;;;;;;5128886;28;20812;-78
2023/10/13 11:23:25;;;;;;;9.70;5.30;;;22.60;67.50;;;;;;5128262;27;20504;-80
2023/10/13 11:25:58;;;;;;;13.00;5.90;;;22.60;67.40;;;;;;5129821;27;20461;-79
2023/10/13 11:28:34;;;;;;;13.43;5.17;;;22.70;67.20;;;;;;5128603;27;20458;-80
2023/10/13 11:31:10;;;;;;;9.90;5.20;;;22.70;67.10;;;;;;5135775;27;20494;-78
2023/10/13 11:33:49;;;;;;;13.20;5.80;;;22.70;67.20;;;;;;5127787;27;20573;-79
2023/10/13 11:36:22;;;;;;;11.40;6.20;;;22.80;67.10;;;;;;5131561;27;20706;-78
2023/10/13 11:38:57;;;;;;;12.27;5.83;;;22.80;67.10;;;;;;5112305;28;20458;-80
2023/10/13 11:41:33;;;;;;;11.50;6.03;;;22.90;67.10;;;;;;5130600;27;20545;-79
2023/10/13 11:44:13;;;;;;;14.60;5.20;;;23.00;66.90;;;;;;5108850;28;21047;-81
2023/10/13 11:47:07;;;;;;;10.93;5.63;;;23.00;66.60;;;;;;5128943;27;20498;-80
2023/10/13 11:49:37;;;;;;;17.13;5.87;;;23.10;66.20;;;;;;5129853;27;20453;-80
2023/10/13 11:52:17;;;;;;;17.57;5.67;;;23.20;66.20;;;;;;5130449;27;20459;-81
2023/10/13 11:54:46;;;;;;;10.00;5.37;;;23.20;65.90;;;;;;5126382;28;20486;-80
2023/10/13 11:57:19;;;;;;;12.10;5.70;;;23.20;65.70;;;;;;5132925;27;21797;-80
2023/10/13 11:59:56;;;;;;;9.90;4.43;;;23.20;65.70;;;;;;5135380;27;20449;-79
2023/10/13 12:05:13;;;;;;;11.37;5.60;;;23.20;65.20;;;;;;5110623;27;20525;-80
2023/10/13 12:07:48;;;;;;;16.50;5.90;;;23.20;65.20;;;;;;5135390;27;20454;-80
2023/10/13 12:10:20;;;;;;;14.93;5.60;;;23.20;65.00;;;;;;5131807;27;20462;-79
2023/10/13 12:12:53;;;;;;;13.90;6.00;;;23.20;64.70;;;;;;5121079;27;20533;-79
2023/10/13 12:15:36;;;;;;;16.57;5.67;;;23.20;64.70;;;;;;5130724;27;20526;-80
2023/10/13 12:18:05;;;;;;;10.77;5.23;;;23.20;64.50;;;;;;5128213;27;20457;-78
2023/10/13 12:20:35;;;;;;;17.57;5.10;;;23.10;64.60;;;;;;5131186;27;20473;-78
2023/10/13 12:23:17;;;;;;;11.80;5.87;;;23.10;64.50;;;;;;5117296;27;20547;-80
2023/10/13 12:25:54;;;;;;;13.93;5.53;;;23.20;64.40;;;;;;5138712;27;20479;-80
2023/10/13 12:28:26;;;;;;;14.90;5.33;;;23.20;64.40;;;;;;5114738;27;20949;-80
2023/10/13 12:30:58;;;;;;;14.30;6.17;;;23.10;64.20;;;;;;5131944;27;20569;-80
2023/10/13 12:33:36;;;;;;;10.50;4.97;;;23.10;64.10;;;;;;5132976;27;20589;-78
2023/10/13 12:36:06;;;;;;;15.03;5.30;;;23.10;64.10;;;;;;5132810;27;20470;-79
2023/10/13 12:38:51;;;;;;;11.10;5.40;;;23.10;64.10;;;;;;5136155;27;20447;-78
2023/10/13 12:49:52;;;;;;;12.93;4.73;;;23.20;64.00;;;;;;5136356;27;20462;-79
2023/10/13 12:52:20;;;;;;;13.00;5.20;;;23.20;63.90;;;;;;5117525;27;20528;-79
2023/10/13 12:54:58;;;;;;;12.73;5.57;;;23.20;63.70;;;;;;5135428;27;20478;-78
2023/10/13 12:57:28;;;;;;;11.97;5.40;;;23.20;63.50;;;;;;5117591;27;20525;-77
2023/10/13 12:59:56;;;;;;;16.20;5.40;;;23.20;63.40;;;;;;5133428;27;20466;-79
2023/10/13 13:02:27;;;;;;;10.83;5.03;;;23.20;63.40;;;;;;5135289;27;21162;-80
2023/10/13 13:05:05;;;;;;;16.33;5.03;;;23.20;63.30;;;;;;5135888;27;20854;-79
2023/10/13 13:07:43;;;;;;;13.17;5.87;;;23.20;63.30;;;;;;5132231;27;20461;-79
2023/10/13 13:10:13;;;;;;;12.43;4.83;;;23.20;63.30;;;;;;5132461;27;20558;-78
2023/10/13 13:12:42;;;;;;;12.37;6.20;;;23.20;63.10;;;;;;5133140;27;20959;-80
2023/10/13 13:15:11;;;;;;;12.30;4.97;;;23.20;63.00;;;;;;5130416;27;20447;-79
2023/10/13 13:17:41;;;;;;;10.93;5.23;;;23.20;62.80;;;;;;5117372;27;20542;-79
2023/10/13 13:20:25;;;;;;;13.40;5.20;;;23.30;62.80;;;;;;5128406;27;20515;-80
2023/10/13 13:22:55;;;;;;;14.13;5.47;;;23.40;62.90;;;;;;5113310;27;21065;-80
2023/10/13 13:25:30;;;;;;;15.23;5.20;;;23.50;62.80;;;;;;5115768;27;20435;-79
2023/10/13 13:28:04;;;;;;;12.37;5.17;;;23.50;62.90;;;;;;5100561;28;20459;-79
2023/10/13 13:30:34;;;;;;;11.23;4.97;;;23.60;62.40;;;;;;5103195;28;20464;-79
2023/10/13 13:33:10;;;;;;;15.67;5.03;;;23.70;62.30;;;;;;5086128;28;20858;-80
2023/10/13 13:35:42;;;;;;;10.43;5.00;;;23.70;62.00;;;;;;5102998;28;20451;-80
2023/10/13 13:38:16;;;;;;;13.17;5.10;;;23.70;61.90;;;;;;5106452;28;20891;-80
2023/10/13 13:40:48;;;;;;;10.33;5.10;;;23.70;61.60;;;;;;5105497;28;20524;-80
2023/10/13 13:43:31;;;;;;;10.77;4.60;;;23.80;61.30;;;;;;5103980;28;20527;-80
2023/10/13 13:46:00;;;;;;;15.10;5.30;;;23.80;61.50;;;;;;5103374;28;20459;-79
2023/10/13 13:48:31;;;;;;;14.13;5.30;;;23.90;61.30;;;;;;5103458;28;20447;-80
2023/10/13 13:51:04;;;;;;;14.87;5.03;;;23.90;61.20;;;;;;5101422;28;20445;-80
2023/10/13 13:53:34;;;;;;;10.23;4.40;;;24.00;61.00;;;;;;5086039;28;20544;-79
2023/10/13 13:56:03;;;;;;;9.87;4.60;;;24.10;60.70;;;;;;5083506;28;21228;-79
2023/10/13 13:58:31;;;;;;;12.40;4.23;;;24.20;60.40;;;;;;5081258;28;20449;-78
2023/10/13 14:01:11;;;;;;;15.30;4.67;;;24.30;60.30;;;;;;5111189;27;21058;-80
2023/10/13 14:03:46;;;;;;;12.10;4.60;;;24.30;60.20;;;;;;5106497;27;20499;-79
2023/10/13 14:06:18;;;;;;;14.07;5.43;;;24.30;60.10;;;;;;5112642;27;20512;-80
2023/10/13 14:08:48;;;;;;;12.50;5.07;;;24.30;59.80;;;;;;5129239;27;20455;-81
2023/10/13 14:12:25;;;;;;;10.80;4.90;;;24.30;59.80;;;;;;5127534;27;20541;-79
2023/10/13 14:14:11;;;;;;;11.50;4.93;;;24.30;59.50;;;;;;5113800;27;20848;-80
2023/10/13 14:16:44;;;;;;;10.97;4.47;;;24.30;59.30;;;;;;5126393;27;20447;-80
2023/10/13 14:19:26;;;;;;;11.73;4.97;;;24.30;59.10;;;;;;5128222;27;20448;-79
2023/10/13 14:21:55;;;;;;;13.10;5.40;;;24.30;59.10;;;;;;5119046;27;20451;-80
2023/10/13 14:24:28;;;;;;;10.37;4.20;;;24.30;59.00;;;;;;5125135;27;20467;-79
2023/10/13 14:26:58;;;;;;;10.57;4.97;;;24.20;58.80;;;;;;5130346;27;20478;-79
2023/10/13 14:29:27;;;;;;;11.10;4.60;;;24.30;58.70;;;;;;5129596;27;20447;-79
2023/10/13 14:31:55;;;;;;;11.43;4.60;;;24.20;58.70;;;;;;5129631;27;20511;-80
2023/10/13 14:34:26;;;;;;;16.23;5.10;;;24.20;58.60;;;;;;5129790;27;20928;-79
2023/10/13 14:36:54;;;;;;;15.53;4.33;;;24.20;58.50;;;;;;5131704;27;20498;-78
2023/10/13 14:39:29;;;;;;;16.50;5.00;;;24.20;58.50;;;;;;5113194;27;20795;-80
2023/10/13 14:41:59;;;;;;;11.30;4.00;;;24.20;58.60;;;;;;5137232;27;20449;-79
2023/10/13 14:44:28;;;;;;;11.63;4.40;;;24.20;58.50;;;;;;5131268;27;20447;-79
2023/10/13 14:46:55;;;;;;;11.60;4.57;;;24.20;58.60;;;;;;5134667;27;20443;-79
2023/10/13 14:49:25;;;;;;;10.97;4.40;;;24.20;58.60;;;;;;5129730;27;20514;-78
2023/10/13 14:51:54;;;;;;;10.80;4.37;;;24.20;58.60;;;;;;5134308;27;21273;-78
2023/10/13 14:54:32;;;;;;;11.00;4.73;;;24.20;58.60;;;;;;5130868;27;20565;-78
2023/10/13 14:57:02;;;;;;;11.00;4.73;;;24.20;58.60;;;;;;5123001;27;20499;-78
2023/10/13 14:59:32;;;;;;;12.93;5.00;;;24.20;58.60;;;;;;5130959;27;20443;-78
2023/10/13 15:02:02;;;;;;;15.37;5.13;;;24.20;58.50;;;;;;5107942;28;20893;-79
2023/10/13 15:04:33;;;;;;;11.50;4.60;;;24.20;58.40;;;;;;5103776;28;20999;-78
2023/10/13 15:07:02;;;;;;;12.27;4.50;;;24.10;58.50;;;;;;5110634;28;20447;-78
2023/10/13 15:09:31;;;;;;;12.23;4.83;;;24.20;58.50;;;;;;5112103;28;20517;-78
2023/10/13 15:12:05;;;;;;;10.50;4.00;;;24.10;58.50;;;;;;5110424;28;20452;-78
2023/10/13 15:14:33;;;;;;;16.97;5.20;;;24.20;58.40;;;;;;5107523;28;20464;-79
2023/10/13 15:17:02;;;;;;;11.60;4.17;;;24.20;58.20;;;;;;5111983;28;20508;-79